Time;durP1;ratioP1;P1;durP2;ratioP2;P2;SDS_P1;SDS_P2;PMS_P1;PMS_P2;Temp;Humidity;BMP_temperature;BMP_pressure;BME280_temperature;BME280_humidity;BME280_pressure;Samples;Min_cycle;Max_cycle;Signal;HPM_P1;HPM_P2
2023/02/23 00:00:19;;;;;;;;;;;10.10;99.90;;;;;;4985093;28;19918;-67
2023/02/23 00:02:46;;;;;;;;;;;10.10;99.90;;;;;;4986395;28;19918;-66
2023/02/23 00:05:12;;;;;;;;;;;10.10;99.90;;;;;;4982477;28;19921;-67
2023/02/23 00:07:37;;;;;;;;;;;10.00;99.90;;;;;;4983911;28;19922;-67
2023/02/23 00:10:03;;;;;;;;;;;10.10;99.90;;;;;;4962210;28;19921;-66
2023/02/23 00:12:28;;;;;;;;;;;10.00;99.90;;;;;;4982023;28;19922;-67
2023/02/23 00:14:54;;;;;;;;;;;10.00;99.90;;;;;;4986243;28;19917;-67
2023/02/23 00:17:19;;;;;;;;;;;9.90;99.90;;;;;;4982558;28;20319;-67
2023/02/23 00:19:46;;;;;;;;;;;10.00;99.90;;;;;;4983243;28;20016;-67
2023/02/23 00:22:12;;;;;;;;;;;10.00;99.90;;;;;;4986220;28;19964;-67
2023/02/23 00:24:37;;;;;;;;;;;10.00;99.90;;;;;;4982495;28;19914;-66
2023/02/23 00:27:05;;;;;;;;;;;10.00;99.90;;;;;;4976711;28;19926;-65
2023/02/23 00:29:37;;;;;;;;;;;10.00;99.90;;;;;;4984112;28;19957;-67
2023/02/23 00:32:02;;;;;;;;;;;10.00;99.90;;;;;;4985600;28;19914;-65
2023/02/23 00:34:28;;;;;;;;;;;10.00;99.90;;;;;;4983272;28;19914;-66
2023/02/23 00:36:54;;;;;;;;;;;9.90;99.90;;;;;;4983626;28;19922;-65
2023/02/23 00:39:27;;;;;;;;;;;9.90;99.90;;;;;;4983082;28;19917;-67
2023/02/23 00:41:54;;;;;;;;;;;9.90;99.90;;;;;;4978988;28;20451;-66
2023/02/23 00:44:20;;;;;;;;;;;9.90;99.90;;;;;;4976347;28;19925;-67
2023/02/23 00:46:49;;;;;;;;;;;9.80;99.90;;;;;;4987901;28;20364;-66
2023/02/23 00:49:15;;;;;;;;;;;9.90;99.90;;;;;;4983481;28;19923;-67
2023/02/23 00:51:41;;;;;;;;;;;9.90;99.90;;;;;;4982297;28;19943;-67
2023/02/23 00:54:06;;;;;;;;;;;9.80;99.90;;;;;;4984736;28;20518;-67
2023/02/23 00:56:32;;;;;;;;;;;9.80;99.90;;;;;;4983746;28;19917;-67
2023/02/23 00:58:57;;;;;;;;;;;9.80;99.90;;;;;;4988164;28;19980;-67
2023/02/23 01:01:23;;;;;;;;;;;9.90;99.90;;;;;;4978232;28;19922;-67
2023/02/23 01:03:49;;;;;;;;;;;9.90;99.90;;;;;;4981199;28;19918;-67
2023/02/23 01:06:15;;;;;;;;;;;9.90;99.90;;;;;;4980709;28;19990;-67
2023/02/23 01:08:49;;;;;;;;;;;10.00;99.90;;;;;;4983981;28;20233;-67
2023/02/23 01:11:16;;;;;;;;;;;10.00;99.90;;;;;;4980703;28;19997;-66
2023/02/23 01:13:42;;;;;;;;;;;10.00;99.90;;;;;;4987366;28;20000;-67
2023/02/23 01:16:09;;;;;;;;;;;10.10;99.90;;;;;;4985497;28;19914;-67
2023/02/23 01:18:35;;;;;;;;;;;10.00;99.90;;;;;;4983399;28;19913;-67
2023/02/23 01:21:04;;;;;;;;;;;10.00;99.90;;;;;;4978201;28;19962;-66
2023/02/23 01:23:29;;;;;;;;;;;10.00;99.90;;;;;;4979946;28;19913;-67
2023/02/23 01:25:55;;;;;;;;;;;10.00;99.90;;;;;;4980315;28;20447;-67
2023/02/23 01:28:20;;;;;;;;;;;10.00;99.90;;;;;;4981358;28;19928;-67
2023/02/23 01:30:45;;;;;;;;;;;10.00;99.90;;;;;;4984313;28;20265;-67
2023/02/23 01:33:12;;;;;;;;;;;10.00;99.90;;;;;;4980498;28;19918;-67
2023/02/23 01:35:38;;;;;;;;;;;10.00;99.90;;;;;;4986476;28;19963;-67
2023/02/23 01:38:03;;;;;;;;;;;10.10;99.90;;;;;;4982040;28;19949;-66
2023/02/23 01:40:29;;;;;;;;;;;10.20;99.90;;;;;;4984294;28;19913;-67
2023/02/23 01:42:55;;;;;;;;;;;10.20;99.90;;;;;;4985004;28;20204;-67
2023/02/23 01:45:28;;;;;;;;;;;10.10;99.90;;;;;;4987505;28;19917;-67
2023/02/23 01:48:02;;;;;;;;;;;10.10;99.90;;;;;;4977517;28;19925;-67
2023/02/23 01:50:30;;;;;;;;;;;10.10;99.90;;;;;;4982705;28;19928;-66
2023/02/23 01:52:57;;;;;;;;;;;10.20;99.90;;;;;;4984752;28;19914;-67
2023/02/23 01:55:24;;;;;;;;;;;10.20;99.90;;;;;;4985925;28;19946;-67
2023/02/23 01:57:52;;;;;;;;;;;10.20;99.90;;;;;;4976956;28;20457;-67
2023/02/23 02:00:19;;;;;;;;;;;10.20;99.90;;;;;;4985673;28;19913;-67
2023/02/23 02:02:44;;;;;;;;;;;10.10;99.90;;;;;;4983178;28;20372;-67
2023/02/23 02:05:12;;;;;;;;;;;10.10;99.90;;;;;;4985724;28;19961;-67
2023/02/23 02:07:41;;;;;;;;;;;10.10;99.90;;;;;;4989640;28;19918;-67
2023/02/23 02:12:43;;;;;;;;;;;10.10;99.90;;;;;;4986093;28;19921;-67
2023/02/23 02:15:15;;;;;;;;;;;10.10;99.90;;;;;;4986168;28;20292;-67
2023/02/23 02:17:44;;;;;;;;;;;10.00;99.90;;;;;;4983468;28;20199;-67
2023/02/23 02:20:31;;;;;;;;;;;10.00;99.90;;;;;;4985679;28;19914;-67
2023/02/23 02:23:08;;;;;;;;;;;10.00;99.90;;;;;;4988503;28;19914;-67
2023/02/23 02:25:50;;;;;;;;;;;10.00;99.90;;;;;;4982162;28;19914;-67
2023/02/23 02:28:16;;;;;;;;;;;10.10;99.90;;;;;;4984617;28;19922;-67
2023/02/23 02:30:42;;;;;;;;;;;10.10;99.90;;;;;;4989929;28;19918;-67
2023/02/23 02:33:09;;;;;;;;;;;10.20;99.90;;;;;;4965910;28;19948;-67
2023/02/23 02:35:50;;;;;;;;;;;10.10;99.90;;;;;;4983670;28;19960;-68
2023/02/23 02:38:29;;;;;;;;;;;10.10;99.90;;;;;;4986253;28;19917;-67
2023/02/23 02:41:04;;;;;;;;;;;10.10;99.90;;;;;;4987653;28;20004;-67
2023/02/23 02:43:54;;;;;;;;;;;10.20;99.90;;;;;;4987153;28;19914;-67
2023/02/23 02:46:22;;;;;;;;;;;10.10;99.90;;;;;;4987027;28;20442;-67
2023/02/23 02:48:58;;;;;;;;;;;10.00;99.90;;;;;;4986586;28;19996;-67
2023/02/23 02:51:41;;;;;;;;;;;10.00;99.90;;;;;;4987455;28;19914;-67
2023/02/23 02:54:25;;;;;;;;;;;10.10;99.90;;;;;;4988130;28;19921;-67
2023/02/23 02:56:53;;;;;;;;;;;10.10;99.90;;;;;;4990962;28;19914;-67
2023/02/23 04:17:37;;;;;;;;;;;9.90;99.90;;;;;;5018784;23;19925;-82
2023/02/23 04:20:02;;;;;;;;;;;9.90;99.90;;;;;;5017725;28;19913;-84
2023/02/23 04:22:28;;;;;;;;;;;9.90;99.90;;;;;;5000000;28;20374;-81
2023/02/23 04:24:53;;;;;;;;;;;9.90;99.90;;;;;;5000652;28;19922;-83
2023/02/23 04:27:19;;;;;;;;;;;9.80;99.90;;;;;;4998750;28;19928;-83
2023/02/23 04:29:45;;;;;;;;;;;9.80;99.90;;;;;;5017106;28;19920;-84
2023/02/23 04:32:15;;;;;;;;;;;9.80;99.90;;;;;;4998799;28;19913;-82
2023/02/23 04:34:41;;;;;;;;;;;9.80;99.90;;;;;;5020733;28;19913;-84
2023/02/23 04:37:06;;;;;;;;;;;9.80;99.90;;;;;;5001575;28;19920;-83
2023/02/23 04:39:32;;;;;;;;;;;9.80;99.90;;;;;;5013031;28;19936;-83
2023/02/23 04:41:57;;;;;;;;;;;9.80;99.90;;;;;;4998134;28;19969;-83
2023/02/23 04:44:23;;;;;;;;;;;9.70;99.90;;;;;;5005650;28;19936;-84
2023/02/23 04:46:48;;;;;;;;;;;9.80;99.90;;;;;;5002682;28;19913;-84
2023/02/23 04:49:13;;;;;;;;;;;9.80;99.90;;;;;;5004037;28;20365;-83
2023/02/23 04:51:39;;;;;;;;;;;9.80;99.90;;;;;;4994200;28;19914;-84
2023/02/23 04:54:05;;;;;;;;;;;9.70;99.90;;;;;;5001617;28;19958;-84
2023/02/23 04:56:30;;;;;;;;;;;9.70;99.90;;;;;;4997961;28;19914;-83
2023/02/23 04:58:56;;;;;;;;;;;9.70;99.90;;;;;;5022955;28;20017;-83
2023/02/23 05:01:22;;;;;;;;;;;9.80;99.90;;;;;;5019135;28;20048;-84
2023/02/23 05:03:48;;;;;;;;;;;9.70;99.90;;;;;;4999338;28;19921;-84
2023/02/23 05:06:16;;;;;;;;;;;9.70;99.90;;;;;;5005200;28;19960;-85
2023/02/23 05:08:42;;;;;;;;;;;9.70;99.90;;;;;;4999363;28;19934;-84
2023/02/23 05:11:08;;;;;;;;;;;9.80;99.90;;;;;;5000809;28;19913;-84
2023/02/23 05:13:34;;;;;;;;;;;9.70;99.90;;;;;;5016033;28;19920;-84
2023/02/23 05:15:59;;;;;;;;;;;9.70;99.90;;;;;;4999755;28;19914;-85
2023/02/23 05:18:25;;;;;;;;;;;9.70;99.90;;;;;;5000833;28;20376;-83
2023/02/23 05:20:51;;;;;;;;;;;9.70;99.90;;;;;;5025383;28;19960;-83
2023/02/23 05:23:17;;;;;;;;;;;9.70;99.90;;;;;;5000653;28;19940;-82
2023/02/23 05:25:43;;;;;;;;;;;9.70;99.90;;;;;;5003511;28;19930;-85
2023/02/23 05:28:09;;;;;;;;;;;9.70;99.90;;;;;;4999792;28;19930;-85
2023/02/23 05:30:35;;;;;;;;;;;9.70;99.90;;;;;;4999579;28;19918;-85
2023/02/23 05:33:01;;;;;;;;;;;9.70;99.90;;;;;;5022863;28;19956;-85
2023/02/23 05:35:26;;;;;;;;;;;9.70;99.90;;;;;;5002597;28;19936;-85
2023/02/23 05:37:52;;;;;;;;;;;9.70;99.90;;;;;;5000948;28;19917;-84
2023/02/23 05:40:17;;;;;;;;;;;9.70;99.90;;;;;;5022015;28;19921;-84
2023/02/23 05:42:43;;;;;;;;;;;9.70;99.90;;;;;;5035649;28;19913;-86
2023/02/23 05:45:09;;;;;;;;;;;9.70;99.90;;;;;;5010340;28;19914;-84
2023/02/23 05:47:37;;;;;;;;;;;9.70;99.90;;;;;;5006241;28;19931;-84
2023/02/23 05:50:06;;;;;;;;;;;9.80;99.90;;;;;;5021087;28;19925;-85
2023/02/23 05:52:32;;;;;;;;;;;9.80;99.90;;;;;;5008742;28;20357;-85
2023/02/23 05:54:57;;;;;;;;;;;9.70;99.90;;;;;;5010633;28;19953;-86
2023/02/23 05:57:23;;;;;;;;;;;9.70;99.90;;;;;;5009198;28;19923;-84
2023/02/23 05:59:48;;;;;;;;;;;9.70;99.90;;;;;;4996124;28;19953;-85
2023/02/23 06:02:14;;;;;;;;;;;9.70;99.90;;;;;;5001501;28;20309;-86
2023/02/23 06:04:40;;;;;;;;;;;9.60;99.90;;;;;;5012978;28;19913;-83
2023/02/23 06:07:06;;;;;;;;;;;9.60;99.90;;;;;;5002047;28;19988;-85
2023/02/23 06:09:32;;;;;;;;;;;9.60;99.90;;;;;;5004085;28;20247;-85
2023/02/23 06:11:59;;;;;;;;;;;9.60;99.90;;;;;;5001745;28;19975;-83
2023/02/23 06:14:25;;;;;;;;;;;9.60;99.90;;;;;;5014595;28;19914;-82
2023/02/23 06:16:50;;;;;;;;;;;9.70;99.90;;;;;;4997014;28;19940;-82
2023/02/23 06:19:16;;;;;;;;;;;9.70;99.90;;;;;;4996113;28;20391;-84
2023/02/23 06:21:42;;;;;;;;;;;9.70;99.90;;;;;;4983888;28;19949;-83
2023/02/23 06:24:07;;;;;;;;;;;9.70;99.90;;;;;;4981276;28;19917;-82
2023/02/23 06:26:34;;;;;;;;;;;9.80;99.90;;;;;;4982445;28;19914;-82
2023/02/23 06:28:59;;;;;;;;;;;9.70;99.90;;;;;;4982930;28;19917;-78
2023/02/23 06:31:25;;;;;;;;;;;9.70;99.90;;;;;;4978629;28;19929;-77
2023/02/23 06:33:52;;;;;;;;;;;9.70;99.90;;;;;;4990411;28;20012;-83
2023/02/23 06:36:18;;;;;;;;;;;9.70;99.90;;;;;;4975775;28;19914;-85
2023/02/23 06:38:44;;;;;;;;;;;9.70;99.90;;;;;;4977264;28;19960;-84
2023/02/23 06:41:10;;;;;;;;;;;9.70;99.90;;;;;;4983470;28;20005;-83
2023/02/23 06:43:38;;;;;;;;;;;9.70;99.90;;;;;;4984903;28;19988;-82
2023/02/23 06:46:05;;;;;;;;;;;9.70;99.90;;;;;;4996956;28;20840;-84
2023/02/23 06:48:30;;;;;;;;;;;9.70;99.90;;;;;;4993442;28;19918;-84
2023/02/23 06:50:59;;;;;;;;;;;9.70;99.90;;;;;;4982282;28;19917;-83
2023/02/23 06:53:24;;;;;;;;;;;9.60;99.90;;;;;;4985957;28;19964;-84
2023/02/23 06:55:50;;;;;;;;;;;9.60;99.90;;;;;;4987418;28;19914;-82
2023/02/23 06:58:16;;;;;;;;;;;9.70;99.90;;;;;;4984738;28;19917;-83
2023/02/23 07:00:42;;;;;;;;;;;9.60;99.90;;;;;;4976971;28;19944;-84
2023/02/23 07:03:08;;;;;;;;;;;9.70;99.90;;;;;;4982564;28;19913;-82
2023/02/23 07:05:34;;;;;;;;;;;9.60;99.90;;;;;;4983157;28;20319;-83
2023/02/23 07:07:59;;;;;;;;;;;9.60;99.90;;;;;;4981524;28;19925;-82
2023/02/23 07:10:25;;;;;;;;;;;9.60;99.90;;;;;;5003454;28;19910;-83
2023/02/23 07:12:52;;;;;;;;;;;9.60;99.90;;;;;;4995112;28;20385;-83
2023/02/23 07:15:19;;;;;;;;;;;9.60;99.90;;;;;;4984547;28;20388;-84
2023/02/23 07:17:47;;;;;;;;;;;9.60;99.90;;;;;;5001560;28;20377;-83
2023/02/23 07:20:13;;;;;;;;;;;9.60;99.90;;;;;;5000921;28;19909;-84
2023/02/23 07:22:39;;;;;;;;;;;9.70;99.90;;;;;;4990346;28;19914;-84
2023/02/23 07:25:04;;;;;;;;;;;9.70;99.90;;;;;;4985147;28;19985;-83
2023/02/23 07:27:30;;;;;;;;;;;9.70;99.90;;;;;;4985545;28;20004;-83
2023/02/23 07:29:55;;;;;;;;;;;9.70;99.90;;;;;;4978072;28;19921;-84
2023/02/23 07:32:21;;;;;;;;;;;9.70;99.90;;;;;;4975591;28;20000;-85
2023/02/23 07:34:46;;;;;;;;;;;9.70;99.90;;;;;;4984681;28;19917;-84
2023/02/23 07:37:12;;;;;;;;;;;9.70;99.90;;;;;;4989292;28;19914;-85
2023/02/23 07:39:37;;;;;;;;;;;9.70;99.90;;;;;;5000093;28;19917;-84
2023/02/23 07:42:03;;;;;;;;;;;9.70;99.90;;;;;;5003760;28;19968;-84
2023/02/23 07:44:28;;;;;;;;;;;9.70;99.90;;;;;;5000275;28;19917;-84
2023/02/23 07:46:54;;;;;;;;;;;9.70;99.90;;;;;;4982302;28;19960;-84
2023/02/23 07:49:19;;;;;;;;;;;9.70;99.90;;;;;;4999876;28;19949;-84
2023/02/23 07:51:45;;;;;;;;;;;9.70;99.90;;;;;;4983356;28;19918;-85
2023/02/23 07:54:11;;;;;;;;;;;9.80;99.90;;;;;;4984611;28;19913;-84
2023/02/23 07:56:36;;;;;;;;;;;9.70;99.90;;;;;;4990580;28;19913;-83
2023/02/23 07:59:02;;;;;;;;;;;9.70;99.90;;;;;;5001377;28;20012;-84
2023/02/23 08:01:27;;;;;;;;;;;9.80;99.90;;;;;;4994499;28;19914;-84
2023/02/23 08:03:53;;;;;;;;;;;9.70;99.90;;;;;;4981009;28;20012;-84
2023/02/23 08:06:19;;;;;;;;;;;9.80;99.90;;;;;;5000061;28;20001;-84
2023/02/23 08:08:44;;;;;;;;;;;9.80;99.90;;;;;;4982437;28;19929;-83
2023/02/23 08:11:10;;;;;;;;;;;9.80;99.90;;;;;;4998671;28;19917;-85
2023/02/23 08:13:36;;;;;;;;;;;9.80;99.90;;;;;;4988344;28;19914;-84
2023/02/23 08:16:02;;;;;;;;;;;9.80;99.90;;;;;;4995608;28;20401;-84
2023/02/23 08:18:27;;;;;;;;;;;9.80;99.90;;;;;;5000139;28;19917;-86
2023/02/23 08:20:57;;;;;;;;;;;9.80;99.90;;;;;;5008053;28;19931;-83
2023/02/23 08:23:22;;;;;;;;;;;9.80;99.90;;;;;;5001090;28;21345;-82
2023/02/23 08:25:48;;;;;;;;;;;9.80;99.90;;;;;;5017482;28;20008;-84
2023/02/23 08:28:13;;;;;;;;;;;9.80;99.90;;;;;;5008855;28;19924;-84
2023/02/23 08:30:39;;;;;;;;;;;9.80;99.90;;;;;;5004321;28;19913;-83
2023/02/23 08:33:06;;;;;;;;;;;9.80;99.90;;;;;;5019095;28;19914;-84
2023/02/23 08:35:31;;;;;;;;;;;9.70;99.90;;;;;;5021646;28;19964;-84
2023/02/23 08:37:57;;;;;;;;;;;9.80;99.90;;;;;;5025298;28;19913;-84
2023/02/23 08:40:22;;;;;;;;;;;9.80;99.90;;;;;;5022513;28;20230;-85
2023/02/23 08:42:48;;;;;;;;;;;9.80;99.90;;;;;;5019712;28;20227;-85
2023/02/23 08:45:13;;;;;;;;;;;9.70;99.90;;;;;;5019162;28;19910;-84
2023/02/23 08:47:39;;;;;;;;;;;9.80;99.90;;;;;;5010477;28;19914;-84
2023/02/23 08:50:05;;;;;;;;;;;9.80;99.90;;;;;;5001503;28;20381;-84
2023/02/23 08:52:30;;;;;;;;;;;9.80;99.90;;;;;;5005058;28;19946;-84
2023/02/23 08:54:56;;;;;;;;;;;9.80;99.90;;;;;;5003039;28;19959;-83
2023/02/23 08:57:25;;;;;;;;;;;9.80;99.90;;;;;;5018336;28;19917;-83
2023/02/23 08:59:51;;;;;;;;;;;9.90;99.90;;;;;;5019428;28;19921;-82
2023/02/23 09:02:16;;;;;;;;;;;9.90;99.90;;;;;;5024754;28;20012;-83
2023/02/23 09:04:42;;;;;;;;;;;9.90;99.90;;;;;;5019906;28;19937;-83
2023/02/23 09:07:15;;;;;;;;;;;9.90;99.90;;;;;;5006022;28;19913;-84
2023/02/23 09:09:41;;;;;;;;;;;9.80;99.90;;;;;;5006398;28;20004;-84
2023/02/23 09:12:06;;;;;;;;;;;9.90;99.90;;;;;;5024037;28;20309;-84
2023/02/23 09:14:32;;;;;;;;;;;9.80;99.90;;;;;;5002340;28;20008;-82
2023/02/23 09:16:57;;;;;;;;;;;9.80;99.90;;;;;;5004638;28;19967;-84
2023/02/23 09:19:23;;;;;;;;;;;9.80;99.90;;;;;;5017492;28;19976;-84
2023/02/23 09:21:48;;;;;;;;;;;9.80;99.90;;;;;;5001917;28;19963;-84
2023/02/23 09:24:17;;;;;;;;;;;9.80;99.90;;;;;;5025914;28;19936;-85
2023/02/23 09:26:42;;;;;;;;;;;9.80;99.90;;;;;;5024094;28;19936;-84
2023/02/23 09:29:08;;;;;;;;;;;9.80;99.90;;;;;;5015831;28;20370;-85
2023/02/23 09:31:33;;;;;;;;;;;9.80;99.90;;;;;;5007525;28;19913;-84
2023/02/23 09:34:00;;;;;;;;;;;9.80;99.90;;;;;;5030877;28;19909;-85
2023/02/23 09:36:26;;;;;;;;;;;9.80;99.90;;;;;;5001470;28;19924;-85
2023/02/23 09:38:54;;;;;;;;;;;9.80;99.90;;;;;;5021224;28;21030;-84
2023/02/23 09:41:29;;;;;;;;;;;9.80;99.90;;;;;;5019552;28;19924;-84
2023/02/23 09:44:14;;;;;;;;;;;9.80;99.90;;;;;;5011746;28;19917;-83
2023/02/23 09:46:52;;;;;;;;;;;9.70;99.90;;;;;;5004813;28;20389;-84
2023/02/23 09:49:19;;;;;;;;;;;9.70;99.90;;;;;;5002327;28;19917;-84
2023/02/23 09:51:47;;;;;;;;;;;9.70;99.90;;;;;;5001626;28;19921;-84
2023/02/23 09:54:13;;;;;;;;;;;9.70;99.90;;;;;;5001868;28;20008;-84
2023/02/23 09:56:39;;;;;;;;;;;9.70;99.90;;;;;;5009082;28;20401;-84
2023/02/23 09:59:06;;;;;;;;;;;9.70;99.90;;;;;;4999909;28;19968;-83
2023/02/23 10:01:46;;;;;;;;;;;9.80;99.90;;;;;;5020785;28;19910;-83
2023/02/23 10:04:24;;;;;;;;;;;9.80;99.90;;;;;;5031039;28;20374;-82
2023/02/23 10:07:12;;;;;;;;;;;9.80;99.90;;;;;;5019880;28;19921;-82
2023/02/23 10:09:41;;;;;;;;;;;9.80;99.90;;;;;;4999645;28;19940;-83
2023/02/23 10:12:14;;;;;;;;;;;9.80;99.90;;;;;;5006915;28;19997;-83
2023/02/23 10:14:55;;;;;;;;;;;9.80;99.90;;;;;;5008044;23;19925;-60
2023/02/23 10:17:27;;;;;;;;;;;9.80;99.90;;;;;;4998515;28;20362;-60
2023/02/23 10:19:58;;;;;;;;;;;9.70;99.90;;;;;;5006061;28;19980;-61
2023/02/23 10:22:25;;;;;;;;;;;9.80;99.90;;;;;;5000291;28;19940;-60
2023/02/23 10:25:01;;;;;;;;;;;9.80;99.90;;;;;;5007881;28;20044;-60
2023/02/23 10:27:31;;;;;;;;;;;9.90;99.90;;;;;;5004071;28;19925;-59
2023/02/23 10:30:00;;;;;;;;;;;9.80;99.90;;;;;;5002581;28;20031;-60
2023/02/23 10:32:31;;;;;;;;;;;9.80;99.90;;;;;;5052716;23;19925;-65
2023/02/23 10:34:56;;;;;;;;;;;9.80;99.90;;;;;;5049813;28;20035;-66
2023/02/23 10:37:23;;;;;;;;;;;9.80;99.90;;;;;;5052577;28;20097;-65
2023/02/23 10:39:50;;;;;;;;;;;9.80;99.90;;;;;;5053359;28;19916;-66
2023/02/23 10:42:19;;;;;;;;;;;9.80;99.90;;;;;;5058341;28;20503;-66
2023/02/23 10:44:45;;;;;;;;;;;9.70;99.90;;;;;;5050352;28;19912;-66
2023/02/23 10:47:13;;;;;;;;;;;9.70;99.90;;;;;;5042790;28;19962;-65
2023/02/23 10:49:46;;;;;;;;;;;9.70;99.90;;;;;;5051405;28;19909;-65
2023/02/23 10:52:13;;;;;;;;;;;9.70;99.90;;;;;;5043487;28;20009;-65
2023/02/23 10:54:43;;;;;;;;;;;9.70;99.90;;;;;;5056681;28;20374;-64
2023/02/23 10:57:12;;;;;;;;;;;9.70;99.90;;;;;;5056306;28;19915;-64
2023/02/23 10:59:57;;;;;;;;;;;9.70;99.90;;;;;;5047149;28;20359;-63
2023/02/23 11:02:24;;;;;;;;;;;9.60;99.90;;;;;;5043343;28;20336;-64
2023/02/23 11:04:51;;;;;;;;;;;9.60;99.90;;;;;;5022835;28;19913;-65
2023/02/23 11:07:20;;;;;;;;;;;9.70;99.90;;;;;;5021338;28;19924;-64
2023/02/23 11:09:45;;;;;;;;;;;9.70;99.90;;;;;;5042335;28;20444;-65
2023/02/23 11:12:33;;;;;;;;;;;9.70;99.90;;;;;;5043618;28;19919;-67
2023/02/23 11:15:18;;;;;;;;;;;9.70;99.90;;;;;;5031227;28;19992;-67
2023/02/23 11:17:44;;;;;;;;;;;9.70;99.90;;;;;;5048285;28;19927;-61
2023/02/23 11:20:15;;;;;;;;;;;9.70;99.90;;;;;;5041628;28;19917;-62
2023/02/23 11:22:41;;;;;;;;;;;9.70;99.90;;;;;;5044231;28;19917;-62
2023/02/23 11:25:28;;;;;;;;;;;9.70;99.90;;;;;;5041700;28;20348;-61
2023/02/23 11:27:55;;;;;;;;;;;9.60;99.90;;;;;;5043502;28;19917;-57
2023/02/23 11:30:28;;;;;;;;;;;9.60;99.90;;;;;;5040206;28;19917;-61
2023/02/23 11:32:56;;;;;;;;;;;9.60;99.90;;;;;;5039409;28;19928;-62
2023/02/23 11:35:21;;;;;;;;;;;9.70;99.90;;;;;;5045792;28;19913;-60
2023/02/23 11:37:47;;;;;;;;;;;9.70;99.90;;;;;;5045069;28;20404;-62
2023/02/23 11:40:24;;;;;;;;;;;9.70;99.90;;;;;;5043746;28;19967;-62
2023/02/23 11:42:58;;;;;;;;;;;9.70;99.90;;;;;;5052909;28;19934;-63
2023/02/23 11:45:25;;;;;;;;;;;9.70;99.90;;;;;;5041927;28;20271;-63
2023/02/23 11:47:52;;;;;;;;;;;9.70;99.90;;;;;;5038977;28;20438;-62
2023/02/23 11:50:28;;;;;;;;;;;9.70;99.90;;;;;;5040877;28;20633;-62
2023/02/23 11:52:59;;;;;;;;;;;9.70;99.90;;;;;;5036421;28;19924;-62
2023/02/23 11:55:25;;;;;;;;;;;9.70;99.90;;;;;;5042300;28;20267;-62
2023/02/23 11:57:52;;;;;;;;;;;9.70;99.90;;;;;;5038108;28;19917;-62
2023/02/23 12:00:22;;;;;;;;;;;9.80;99.90;;;;;;5041996;28;19970;-62
2023/02/23 12:02:50;;;;;;;;;;;9.70;99.90;;;;;;5008223;28;20557;-62
2023/02/23 12:05:18;;;;;;;;;;;9.70;99.90;;;;;;5041388;28;20015;-60
2023/02/23 12:07:52;;;;;;;;;;;9.60;99.90;;;;;;5042579;28;19975;-62
2023/02/23 12:10:20;;;;;;;;;;;9.50;99.90;;;;;;5024344;28;19924;-62
2023/02/23 12:13:06;;;;;;;;;;;9.40;99.90;;;;;;5041645;28;20386;-63
2023/02/23 12:15:45;;;;;;;;;;;9.40;99.90;;;;;;5036017;28;19917;-62
2023/02/23 12:18:15;;;;;;;;;;;9.40;99.90;;;;;;5041048;28;19977;-62
2023/02/23 12:20:43;;;;;;;;;;;9.40;99.90;;;;;;5042841;28;19923;-61
2023/02/23 12:23:11;;;;;;;;;;;9.40;99.90;;;;;;5038580;28;20042;-62
2023/02/23 12:25:46;;;;;;;;;;;9.40;99.90;;;;;;5026897;28;19913;-62
2023/02/23 12:28:16;;;;;;;;;;;9.30;99.90;;;;;;5042834;28;20361;-61
2023/02/23 12:30:50;;;;;;;;;;;9.30;99.90;;;;;;5041796;28;19913;-61
2023/02/23 12:33:19;;;;;;;;;;;9.30;99.90;;;;;;5043163;28;19923;-62
2023/02/23 12:35:48;;;;;;;;;;;9.30;99.90;;;;;;5047232;28;19948;-61
2023/02/23 12:38:42;;;;;;;;;;;9.30;99.90;;;;;;5045068;28;20379;-61
2023/02/23 12:41:10;;;;;;;;;;;9.30;99.90;;;;;;5051927;28;19917;-62
2023/02/23 12:43:48;;;;;;;;;;;9.20;99.90;;;;;;5040747;28;19912;-62
2023/02/23 12:46:19;;;;;;;;;;;9.20;99.90;;;;;;5044116;28;19942;-62
2023/02/23 12:49:01;;;;;;;;;;;9.20;99.90;;;;;;5050179;28;19931;-59
2023/02/23 12:51:29;;;;;;;;;;;9.20;99.90;;;;;;5040468;28;19920;-60
2023/02/23 12:53:54;;;;;;;;;;;9.20;99.90;;;;;;5038036;28;19959;-61
2023/02/23 12:56:26;;;;;;;;;;;9.20;99.90;;;;;;5043697;28;20371;-61
2023/02/23 12:59:13;;;;;;;;;;;9.20;99.90;;;;;;5024922;28;19916;-61
2023/02/23 13:01:48;;;;;;;;;;;9.20;99.90;;;;;;5045208;28;19921;-60
2023/02/23 13:04:51;;;;;;;;;;;9.20;99.90;;;;;;5045654;28;19920;-61
2023/02/23 13:07:21;;;;;;;;;;;9.20;99.90;;;;;;4944026;28;19925;-61
2023/02/23 13:10:16;;;;;;;;;;;9.30;99.90;;;;;;4944419;28;20030;-61
2023/02/23 13:12:42;;;;;;;;;;;9.30;99.90;;;;;;4998071;28;19919;-60
2023/02/23 13:15:18;;;;;;;;;;;9.30;99.90;;;;;;5048564;28;19913;-61
2023/02/23 13:17:49;;;;;;;;;;;9.20;99.90;;;;;;5042453;28;20418;-60
2023/02/23 13:20:47;;;;;;;;;;;9.20;99.90;;;;;;5024716;28;19917;-61
2023/02/23 13:23:19;;;;;;;;;;;9.30;99.90;;;;;;5027460;28;19913;-60
2023/02/23 13:26:00;;;;;;;;;;;9.30;99.90;;;;;;5041967;28;19918;-60
2023/02/23 13:28:33;;;;;;;;;;;9.30;99.90;;;;;;5042692;28;19923;-60
2023/02/23 13:30:59;;;;;;;;;;;9.30;99.90;;;;;;5046107;28;19912;-60
2023/02/23 13:33:26;;;;;;;;;;;9.30;99.90;;;;;;5043503;28;19971;-60
2023/02/23 13:35:52;;;;;;;;;;;9.20;99.90;;;;;;5044658;28;19913;-61
2023/02/23 13:38:36;;;;;;;;;;;9.20;99.90;;;;;;5045920;28;20298;-61
2023/02/23 13:41:30;;;;;;;;;;;9.20;99.90;;;;;;5040323;28;20387;-61
2023/02/23 13:44:14;;;;;;;;;;;9.20;99.90;;;;;;5026380;28;19913;-59
2023/02/23 13:46:49;;;;;;;;;;;9.20;99.90;;;;;;5045296;28;19909;-60
2023/02/23 13:49:19;;;;;;;;;;;9.10;99.90;;;;;;5042933;28;20220;-61
2023/02/23 13:51:44;;;;;;;;;;;9.00;99.90;;;;;;5034731;28;19924;-58
2023/02/23 13:54:13;;;;;;;;;;;9.00;99.90;;;;;;5041261;28;19913;-60
2023/02/23 13:56:43;;;;;;;;;;;9.00;99.90;;;;;;5045241;28;19912;-60
2023/02/23 13:59:15;;;;;;;;;;;9.00;99.90;;;;;;5039684;28;20004;-60
2023/02/23 14:01:43;;;;;;;;;;;9.00;99.90;;;;;;5044846;28;19912;-60
2023/02/23 14:04:13;;;;;;;;;;;9.00;99.90;;;;;;5042579;28;20016;-61
2023/02/23 14:06:48;;;;;;;;;;;9.10;99.90;;;;;;5044140;28;19920;-60
2023/02/23 14:09:22;;;;;;;;;;;9.10;99.90;;;;;;5043650;28;19917;-61
2023/02/23 14:11:49;;;;;;;;;;;9.20;99.90;;;;;;5043695;28;19912;-61
2023/02/23 14:14:30;;;;;;;;;;;9.20;99.90;;;;;;5046607;28;20016;-61
2023/02/23 14:17:14;;;;;;;;;;;9.20;99.90;;;;;;5045036;28;19920;-60
2023/02/23 14:20:04;;;;;;;;;;;9.20;99.90;;;;;;5046503;28;19912;-61
2023/02/23 14:22:29;;;;;;;;;;;9.20;99.90;;;;;;5000016;28;19939;-60
2023/02/23 14:25:13;;;;;;;;;;;9.20;99.90;;;;;;5050877;28;20465;-61
2023/02/23 14:27:43;;;;;;;;;;;9.20;99.90;;;;;;5046721;28;19931;-59
2023/02/23 14:30:11;;;;;;;;;;;9.30;99.90;;;;;;5043463;28;19912;-61
2023/02/23 14:32:44;;;;;;;;;;;9.30;99.90;;;;;;5038779;28;20532;-61
2023/02/23 14:35:32;;;;;;;;;;;9.30;99.90;;;;;;5043784;28;19999;-61
2023/02/23 14:37:59;;;;;;;;;;;9.30;99.90;;;;;;5027574;28;20398;-61
2023/02/23 14:40:32;;;;;;;;;;;9.20;99.90;;;;;;5046944;28;19943;-59
2023/02/23 14:43:00;;;;;;;;;;;9.20;99.90;;;;;;5046788;28;20314;-60
2023/02/23 14:45:30;;;;;;;;;;;9.20;99.90;;;;;;5044044;28;19939;-60
2023/02/23 14:48:01;;;;;;;;;;;9.30;99.90;;;;;;5048157;28;19917;-60
2023/02/23 14:50:28;;;;;;;;;;;9.30;99.90;;;;;;5040202;28;19917;-59
2023/02/23 14:52:55;;;;;;;;;;;9.30;99.90;;;;;;5050036;28;19919;-60
2023/02/23 14:55:23;;;;;;;;;;;9.30;99.90;;;;;;5040372;28;20483;-61
2023/02/23 14:57:49;;;;;;;;;;;9.30;99.90;;;;;;5048305;28;19965;-61
2023/02/23 15:00:14;;;;;;;;;;;9.30;99.90;;;;;;5043998;28;20366;-61
2023/02/23 15:02:52;;;;;;;;;;;9.30;99.90;;;;;;5045260;28;20414;-61
2023/02/23 15:05:18;;;;;;;;;;;9.30;99.90;;;;;;5043526;28;20343;-61
2023/02/23 15:07:44;;;;;;;;;;;9.30;99.90;;;;;;5045285;28;19925;-60
2023/02/23 15:10:23;;;;;;;;;;;9.30;99.90;;;;;;5040033;28;19913;-60
2023/02/23 15:12:49;;;;;;;;;;;9.30;99.90;;;;;;5035086;28;19948;-61
2023/02/23 15:15:16;;;;;;;;;;;9.30;99.90;;;;;;5046931;28;19928;-61
2023/02/23 15:17:45;;;;;;;;;;;9.30;99.90;;;;;;5042384;28;19913;-60
2023/02/23 15:20:13;;;;;;;;;;;9.30;99.90;;;;;;5043425;28;20003;-61
2023/02/23 15:22:40;;;;;;;;;;;9.40;99.90;;;;;;5012409;28;20468;-60
2023/02/23 15:25:18;;;;;;;;;;;9.40;99.90;;;;;;5041570;28;19944;-60
2023/02/23 15:27:45;;;;;;;;;;;9.40;99.90;;;;;;5045002;28;20533;-61
2023/02/23 15:30:22;;;;;;;;;;;9.30;99.90;;;;;;5042996;28;19923;-61
2023/02/23 15:32:57;;;;;;;;;;;9.40;99.90;;;;;;5046852;28;19924;-59
2023/02/23 15:35:22;;;;;;;;;;;9.40;99.90;;;;;;5039798;28;20173;-61
2023/02/23 15:37:48;;;;;;;;;;;9.30;99.90;;;;;;5046874;28;19917;-61
2023/02/23 15:40:16;;;;;;;;;;;9.30;99.90;;;;;;5039942;28;19913;-61
2023/02/23 15:42:43;;;;;;;;;;;9.30;99.90;;;;;;5043865;28;20016;-61
2023/02/23 15:45:14;;;;;;;;;;;9.30;99.90;;;;;;5046673;28;19913;-61
2023/02/23 15:47:41;;;;;;;;;;;9.30;99.90;;;;;;5042273;28;19924;-61
2023/02/23 15:50:12;;;;;;;;;;;9.30;99.90;;;;;;5045960;28;20306;-59
2023/02/23 15:52:43;;;;;;;;;;;9.30;99.90;;;;;;5036768;28;19920;-61
2023/02/23 15:55:12;;;;;;;;;;;9.30;99.90;;;;;;5041386;28;19959;-61
2023/02/23 15:57:46;;;;;;;;;;;9.30;99.90;;;;;;5044289;28;19917;-60
2023/02/23 16:00:31;;;;;;;;;;;9.30;99.90;;;;;;5043502;28;19951;-61